Erria Swan — 9HHJ9 — position and weather

sailwx.info

Track history (hours):
 
Tides and Currents Weather Stations Pressure Air Temp Water Temp Dewpoint Dewpoint Depression Visibility Wind Speed Wind Dir Waves Ship Positions

Erria Swan

Last reported at 2015-Mar-23 20:33 UTC. Time now 2015-Apr-02 09:48 UTC.
Position N 08°39' W 016°03'.
Warning: this ship's position is 9 days out of date.

Length 134 m; draft 8.2 m.

Type: Tanker. MMSI: 256986000.

Date/timePositionNaut miles runAvg speedWind from/ knotsBaromVisibWave heightAir tempDewpointWater temp
2015-Mar-23 20:33N 08°39' W 016°03'1210.7
2015-Mar-23 19:28N 08°48' W 016°11'  
2015-Mar-19 03:33N 27°42' W 015°20'1211.8
2015-Mar-19 02:33N 27°54' W 015°18'1111.1
2015-Mar-19 01:33N 28°05' W 015°22'4 4.2
2015-Mar-19 00:30N 28°09' W 015°24'0 0.0
2015-Mar-18 23:27N 28°09' W 015°24'0 0.0
2015-Mar-18 22:30N 28°09' W 015°24'0 0.0
2015-Mar-18 21:33N 28°09' W 015°24'0 0.0
2015-Mar-18 20:33N 28°09' W 015°24'0 0.0
2015-Mar-18 19:33N 28°09' W 015°24'0 0.0
2015-Mar-18 18:33N 28°09' W 015°24'0 0.0
2015-Mar-18 17:33N 28°09' W 015°24'0 0.0
2015-Mar-18 16:33N 28°09' W 015°24'0 0.0
2015-Mar-18 15:33N 28°09' W 015°24'0 0.0
2015-Mar-18 14:24N 28°09' W 015°24'0 0.0
2015-Mar-18 13:27N 28°09' W 015°24'0 0.0
2015-Mar-18 12:27N 28°09' W 015°24'0 0.0
2015-Mar-18 11:24N 28°09' W 015°24'0 0.1
2015-Mar-18 10:33N 28°09' W 015°24'2 2.4
2015-Mar-18 09:33N 28°07' W 015°22'8 8.4
2015-Mar-18 08:33N 28°09' W 015°12'1110.9
2015-Mar-18 07:33N 28°12' W 015°00'1111.6
2015-Mar-18 06:33N 28°22' W 014°55'1212.0
2015-Mar-18 05:33N 28°33' W 014°50'1211.8
2015-Mar-18 04:33N 28°44' W 014°43'  
2015-Mar-15 20:09N 35°57' W 005°35'610.8
2015-Mar-15 19:33N 35°59' W 005°28'1010.5
2015-Mar-15 18:33N 36°01' W 005°15'21011.3
2015-Mar-15 00:03N 36°58' W 001°03'611.3
2015-Mar-14 23:33N 37°00' W 000°57'1211.5
2015-Mar-14 22:33N 37°06' W 000°45'2311.7
2015-Mar-14 20:33N 37°19' W 000°20'1111.4
2015-Mar-14 19:33N 37°25' W 000°08'1111.4
2015-Mar-14 18:33N 37°31' E 000°05'11911.4
2015-Mar-14 08:07N 38°32' E 002°13'712.1
2015-Mar-14 07:33N 38°36' E 002°21'1212.1
2015-Mar-14 06:33N 38°42' E 002°34'1212.1
2015-Mar-14 05:33N 38°48' E 002°48'1211.8
2015-Mar-14 04:33N 38°54' E 003°01'1211.6
2015-Mar-14 03:33N 39°00' E 003°13'1211.7
2015-Mar-14 02:33N 39°07' E 003°26'1211.6
2015-Mar-14 01:33N 39°12' E 003°39'2611.6
2015-Mar-13 23:18N 39°26' E 004°07'911.7
2015-Mar-13 22:31N 39°31' E 004°18'  
Track history (hours):
 
Tides and Currents Weather Stations Pressure Air Temp Water Temp Dewpoint Dewpoint Depression Visibility Wind Speed Wind Dir Waves Ship Positions

Erria Swan

Last reported at 2015-Mar-23 20:33 UTC. Time now 2015-Apr-02 09:48 UTC.
Position N 08°39' W 016°03'.
Warning: this ship's position is 9 days out of date.

Length 134 m; draft 8.2 m.

Type: Tanker. MMSI: 256986000.

Date/timePositionNaut miles runAvg speedWind from/ knotsBaromVisibWave heightAir tempDewpointWater temp
2015-Mar-23 20:33N 08°39' W 016°03'1210.7
2015-Mar-23 19:28N 08°48' W 016°11'  
2015-Mar-19 03:33N 27°42' W 015°20'1211.8
2015-Mar-19 02:33N 27°54' W 015°18'1111.1
2015-Mar-19 01:33N 28°05' W 015°22'4 4.2
2015-Mar-19 00:30N 28°09' W 015°24'0 0.0
2015-Mar-18 23:27N 28°09' W 015°24'0 0.0
2015-Mar-18 22:30N 28°09' W 015°24'0 0.0
2015-Mar-18 21:33N 28°09' W 015°24'0 0.0
2015-Mar-18 20:33N 28°09' W 015°24'0 0.0
2015-Mar-18 19:33N 28°09' W 015°24'0 0.0
2015-Mar-18 18:33N 28°09' W 015°24'0 0.0
2015-Mar-18 17:33N 28°09' W 015°24'0 0.0
2015-Mar-18 16:33N 28°09' W 015°24'0 0.0
2015-Mar-18 15:33N 28°09' W 015°24'0 0.0
2015-Mar-18 14:24N 28°09' W 015°24'0 0.0
2015-Mar-18 13:27N 28°09' W 015°24'0 0.0
2015-Mar-18 12:27N 28°09' W 015°24'0 0.0
2015-Mar-18 11:24N 28°09' W 015°24'0 0.1
2015-Mar-18 10:33N 28°09' W 015°24'2 2.4
2015-Mar-18 09:33N 28°07' W 015°22'8 8.4
2015-Mar-18 08:33N 28°09' W 015°12'1110.9
2015-Mar-18 07:33N 28°12' W 015°00'1111.6
2015-Mar-18 06:33N 28°22' W 014°55'1212.0
2015-Mar-18 05:33N 28°33' W 014°50'1211.8
2015-Mar-18 04:33N 28°44' W 014°43'  
2015-Mar-15 20:09N 35°57' W 005°35'610.8
2015-Mar-15 19:33N 35°59' W 005°28'1010.5
2015-Mar-15 18:33N 36°01' W 005°15'21011.3
2015-Mar-15 00:03N 36°58' W 001°03'611.3
2015-Mar-14 23:33N 37°00' W 000°57'1211.5
2015-Mar-14 22:33N 37°06' W 000°45'2311.7
2015-Mar-14 20:33N 37°19' W 000°20'1111.4
2015-Mar-14 19:33N 37°25' W 000°08'1111.4
2015-Mar-14 18:33N 37°31' E 000°05'11911.4
2015-Mar-14 08:07N 38°32' E 002°13'712.1
2015-Mar-14 07:33N 38°36' E 002°21'1212.1
2015-Mar-14 06:33N 38°42' E 002°34'1212.1
2015-Mar-14 05:33N 38°48' E 002°48'1211.8
2015-Mar-14 04:33N 38°54' E 003°01'1211.6
2015-Mar-14 03:33N 39°00' E 003°13'1211.7
2015-Mar-14 02:33N 39°07' E 003°26'1211.6
2015-Mar-14 01:33N 39°12' E 003°39'2611.6
2015-Mar-13 23:18N 39°26' E 004°07'911.7
2015-Mar-13 22:31N 39°31' E 004°18'  

Dump ship's entire track history